Terminal Aerodrome Forecast
Issued by NWS

Home | Current Version | Previous Version | Text Only | Print | Product List | Glossary Off
Versions: 1 2 3 4 5 6 7 8 9 10 11 12 13 14 15 16 17 18

000
FTUS43 KGRB 291138
TAFMTW
TAF
KMTW 291138Z 2912/3012 VRB03KT 4SM -SHRA BR BKN002
     FM291600 15005KT 5SM BR VCSH BKN007 OVC020
     FM292200 17005KT P6SM SCT020 BKN040
     FM300000 VRB03KT P6SM FEW050
     FM300300 VRB03KT 3SM BR SKC
     FM300800 VRB03KT 1/2SM FG BKN002=

USA.gov is the U.S. government's official web portal to all federal, state and local government web resources and services.